createdAt,value
2022-12-25T00:01:24.930Z,101238.72
2022-12-25T00:03:52.833Z,101231.69
2022-12-25T00:06:20.230Z,101230.06
2022-12-25T00:08:46.986Z,101225.69
2022-12-25T00:11:16.166Z,101223.56
2022-12-25T00:13:43.718Z,101232.03
2022-12-25T00:16:19.832Z,101235.63
2022-12-25T00:18:47.421Z,101232.38
2022-12-25T00:21:15.886Z,101227.16
2022-12-25T00:23:43.128Z,101226.66
2022-12-25T00:26:13.741Z,101236.59
2022-12-25T00:28:40.754Z,101229.44
2022-12-25T00:31:10.689Z,101224.56
2022-12-25T00:33:39.518Z,101228.13
2022-12-25T00:36:07.256Z,101225.53
2022-12-25T00:38:36.484Z,101224.56
2022-12-25T00:41:07.856Z,101212.66
2022-12-25T00:43:37.228Z,101225.34
2022-12-25T00:46:06.059Z,101218.66
2022-12-25T00:48:33.699Z,101221.44
2022-12-25T00:51:03.329Z,101201.72
2022-12-25T00:53:30.589Z,101211.34
2022-12-25T00:56:03.921Z,101183.97
2022-12-25T00:58:34.193Z,101205.81
2022-12-25T01:01:01.444Z,101185.09
2022-12-25T01:03:28.773Z,101203.34
2022-12-25T01:06:00.940Z,101218.38
2022-12-25T01:08:34.936Z,101203.03
2022-12-25T01:11:05.857Z,101209.41
2022-12-25T01:13:34.978Z,101206.97
2022-12-25T01:16:13.916Z,101205.00
2022-12-25T01:18:42.734Z,101209.59
2022-12-25T01:21:11.595Z,101209.91
2022-12-25T01:23:39.689Z,101202.56
2022-12-25T01:26:07.740Z,101210.53
2022-12-25T01:28:34.899Z,101226.53
2022-12-25T01:31:02.249Z,101226.84
2022-12-25T01:33:29.108Z,101212.81
2022-12-25T01:36:01.780Z,101225.19
2022-12-25T01:38:28.580Z,101210.22
2022-12-25T01:40:55.558Z,101216.72
2022-12-25T01:43:25.925Z,101228.31
2022-12-25T01:45:57.929Z,101237.94
2022-12-25T01:48:38.439Z,101242.19
2022-12-25T01:51:23.277Z,101250.53
2022-12-25T01:53:50.413Z,101242.88
2022-12-25T01:56:17.406Z,101246.44
2022-12-25T01:58:45.782Z,101246.13
2022-12-25T02:01:12.735Z,101260.28
2022-12-25T02:03:42.450Z,101260.13
2022-12-25T02:06:09.951Z,101257.84
2022-12-25T02:08:36.830Z,101266.97
2022-12-25T02:11:03.661Z,101265.03
2022-12-25T02:13:31.092Z,101265.19
2022-12-25T02:16:15.723Z,101273.84
2022-12-25T02:18:52.123Z,101258.19
2022-12-25T02:21:49.095Z,101261.13
2022-12-25T02:25:05.109Z,101251.50
2022-12-25T02:28:05.518Z,101259.66
2022-12-25T02:30:42.776Z,101262.91
2022-12-25T02:33:35.560Z,101257.69
2022-12-25T02:36:10.408Z,101248.38
2022-12-25T02:39:04.088Z,101234.34
2022-12-25T02:41:39.570Z,101232.72
2022-12-25T02:44:34.335Z,101230.41
2022-12-25T02:47:21.391Z,101242.84
2022-12-25T02:50:07.647Z,101241.22
2022-12-25T02:52:53.642Z,101216.09
2022-12-25T02:55:49.498Z,101204.84
2022-12-25T02:58:39.960Z,101196.50
2022-12-25T03:01:30.905Z,101191.47
2022-12-25T03:04:20.433Z,101180.88
2022-12-25T03:07:19.758Z,101176.94
2022-12-25T03:10:21.675Z,101166.19
2022-12-25T03:13:01.965Z,101157.88
2022-12-25T03:15:47.426Z,101164.03
2022-12-25T03:18:18.323Z,101162.56
2022-12-25T03:21:03.910Z,101147.56
2022-12-25T03:23:53.135Z,101165.16
2022-12-25T03:26:38.699Z,101142.50
2022-12-25T03:29:05.777Z,101147.22
2022-12-25T03:31:38.417Z,101154.75
2022-12-25T03:34:40.289Z,101162.22
2022-12-25T03:37:42.987Z,101155.84
2022-12-25T03:40:47.491Z,101159.63
2022-12-25T03:43:57.777Z,101156.69
2022-12-25T03:46:50.140Z,101150.34
2022-12-25T03:49:50.352Z,101153.63
2022-12-25T03:52:40.967Z,101151.50
2022-12-25T03:55:31.473Z,101156.06
2022-12-25T03:58:16.761Z,101151.34
2022-12-25T04:01:05.252Z,101148.75
2022-12-25T04:03:50.983Z,101134.91
2022-12-25T04:06:36.365Z,101145.81
2022-12-25T04:09:22.020Z,101148.56
2022-12-25T04:12:07.322Z,101147.94
2022-12-25T04:14:52.683Z,101141.59
2022-12-25T04:17:41.088Z,101130.50
2022-12-25T04:20:26.773Z,101132.94
2022-12-25T04:23:12.120Z,101143.53
2022-12-25T04:25:57.582Z,101143.06
2022-12-25T04:28:43.096Z,101136.72
2022-12-25T04:31:28.734Z,101149.56
2022-12-25T04:34:13.712Z,101157.41
2022-12-25T04:36:40.551Z,101155.28
2022-12-25T04:39:07.612Z,101140.94
2022-12-25T04:41:34.370Z,101138.66
2022-12-25T04:44:01.230Z,101142.59
2022-12-25T04:46:28.383Z,101133.94
2022-12-25T04:48:55.348Z,101138.66
2022-12-25T04:51:24.755Z,101117.78
2022-12-25T04:53:53.076Z,101140.44
2022-12-25T04:56:20.812Z,101146.63
2022-12-25T04:58:48.016Z,101136.38
2022-12-25T05:01:15.562Z,101138.19
2022-12-25T05:03:42.410Z,101150.88
2022-12-25T05:06:09.967Z,101130.34
2022-12-25T05:08:37.397Z,101121.69
2022-12-25T05:11:13.501Z,101123.84
2022-12-25T05:13:40.748Z,101123.00
2022-12-25T05:16:20.809Z,101134.75
2022-12-25T05:18:52.042Z,101132.16
2022-12-25T05:21:19.308Z,101120.72
2022-12-25T05:23:50.517Z,101112.25
2022-12-25T05:26:21.559Z,101105.56
2022-12-25T05:28:48.699Z,101087.00
2022-12-25T05:31:18.877Z,101079.16
2022-12-25T05:33:51.345Z,101086.97
2022-12-25T05:36:18.700Z,101089.91
2022-12-25T05:38:45.934Z,101092.03
2022-12-25T05:41:13.002Z,101082.41
2022-12-25T05:43:39.792Z,101087.94
2022-12-25T05:46:09.373Z,101104.22
2022-12-25T05:48:37.187Z,101103.41
2022-12-25T05:51:09.272Z,101102.88
2022-12-25T05:53:37.711Z,101085.97
2022-12-25T05:56:06.950Z,101090.66
2022-12-25T05:58:39.522Z,101071.59
2022-12-25T06:01:15.804Z,101079.25
2022-12-25T06:03:42.846Z,101068.28
2022-12-25T06:06:10.503Z,101068.66
2022-12-25T06:08:37.338Z,101059.69
2022-12-25T06:11:05.730Z,101070.28
2022-12-25T06:13:35.102Z,101059.63
2022-12-25T06:16:10.060Z,101053.91
2022-12-25T06:18:43.588Z,101042.69
2022-12-25T06:21:12.742Z,101038.63
2022-12-25T06:23:40.013Z,101025.91
2022-12-25T06:26:11.288Z,101037.94
2022-12-25T06:28:38.228Z,101032.59
2022-12-25T06:31:11.516Z,101035.59
2022-12-25T06:33:38.604Z,101012.50
2022-12-25T06:36:11.644Z,101019.66
2022-12-25T06:38:39.063Z,101008.09
2022-12-25T06:41:08.279Z,101013.44
2022-12-25T06:43:35.131Z,101018.84
2022-12-25T06:46:07.390Z,101018.66
2022-12-25T06:48:34.626Z,100982.00
2022-12-25T06:51:03.163Z,100991.75
2022-12-25T06:53:40.431Z,100983.28
2022-12-25T06:56:15.593Z,100975.84
2022-12-25T06:58:44.818Z,100989.31
2022-12-25T07:01:20.725Z,100990.97
2022-12-25T07:03:53.512Z,100982.53
2022-12-25T07:06:21.040Z,100971.94
2022-12-25T07:08:48.697Z,100990.31
2022-12-25T07:11:18.828Z,100992.13
2022-12-25T07:13:51.523Z,101002.56
2022-12-25T07:16:18.792Z,101025.50
2022-12-25T07:18:46.981Z,101029.47
2022-12-25T07:21:21.514Z,101038.56
2022-12-25T07:23:51.415Z,101022.94
2022-12-25T07:26:18.341Z,101021.66
2022-12-25T07:28:45.192Z,101019.38
2022-12-25T07:31:14.324Z,101014.78
2022-12-25T07:33:41.770Z,100998.78
2022-12-25T07:36:12.610Z,100982.81
2022-12-25T07:38:41.847Z,100993.25
2022-12-25T07:41:13.152Z,100998.81
2022-12-25T07:43:40.314Z,100986.28
2022-12-25T07:46:07.696Z,101016.56
2022-12-25T07:48:36.639Z,101028.31
2022-12-25T07:51:10.193Z,101033.38
2022-12-25T07:53:37.743Z,101038.25
2022-12-25T07:56:11.825Z,101037.94
2022-12-25T07:58:39.733Z,101044.66
2022-12-25T08:01:10.443Z,101060.78
2022-12-25T08:03:37.959Z,101063.22
2022-12-25T08:06:07.701Z,101052.16
2022-12-25T08:08:35.500Z,101058.00
2022-12-25T08:11:02.760Z,101058.34
2022-12-25T08:13:34.337Z,101077.25
2022-12-25T08:16:04.836Z,101085.19
2022-12-25T08:18:34.336Z,101055.13
2022-12-25T08:21:06.694Z,101064.72
2022-12-25T08:23:42.352Z,101070.72
2022-12-25T08:26:12.224Z,101062.72
2022-12-25T08:28:39.432Z,101069.25
2022-12-25T08:31:11.671Z,101062.06
2022-12-25T08:33:39.647Z,101074.63
2022-12-25T08:36:08.869Z,101063.06
2022-12-25T08:38:36.169Z,101077.38
2022-12-25T08:41:03.842Z,101074.13
2022-12-25T08:43:31.712Z,101069.75
2022-12-25T08:45:58.647Z,101074.63
2022-12-25T08:48:26.994Z,101074.28
2022-12-25T08:50:54.437Z,101061.72
2022-12-25T08:53:25.415Z,101055.38
2022-12-25T08:56:02.335Z,101046.09
2022-12-25T08:58:38.082Z,101036.34
2022-12-25T09:01:08.895Z,101048.53
2022-12-25T09:03:37.024Z,101045.13
2022-12-25T09:06:10.702Z,101050.78
2022-12-25T09:08:48.158Z,101042.84
2022-12-25T09:11:23.913Z,101045.47
2022-12-25T09:13:55.344Z,101054.88
2022-12-25T09:16:25.795Z,101077.06
2022-12-25T09:18:53.127Z,101069.53
2022-12-25T09:21:22.814Z,101044.13
2022-12-25T09:23:52.775Z,101069.53
2022-12-25T09:26:23.312Z,101063.66
2022-12-25T09:28:58.048Z,101037.59
2022-12-25T09:31:28.164Z,101056.50
2022-12-25T09:33:58.455Z,101037.94
2022-12-25T09:36:31.199Z,101046.47
2022-12-25T09:39:00.912Z,101022.41
2022-12-25T09:42:16.923Z,101025.50
2022-12-25T09:45:00.873Z,101037.91
2022-12-25T09:47:38.860Z,101015.75
2022-12-25T09:50:17.821Z,101032.03
2022-12-25T09:53:09.843Z,101008.88
2022-12-25T09:55:47.216Z,101017.13
2022-12-25T09:58:14.340Z,101017.50
2022-12-25T10:00:44.276Z,101000.19
2022-12-25T10:03:20.411Z,101004.59
2022-12-25T10:05:53.863Z,100994.50
2022-12-25T10:08:35.746Z,101002.16
2022-12-25T10:11:22.154Z,100986.00
2022-12-25T10:14:23.909Z,100989.56
2022-12-25T10:17:26.441Z,101000.50
2022-12-25T10:20:02.412Z,100999.47
2022-12-25T10:22:38.165Z,101007.06
2022-12-25T10:25:07.302Z,101013.91
2022-12-25T10:27:42.800Z,101009.50
2022-12-25T10:30:19.975Z,101006.75
2022-12-25T10:32:47.679Z,101008.88
2022-12-25T10:35:16.816Z,101007.91
2022-12-25T10:37:45.771Z,101020.13
2022-12-25T10:40:46.009Z,101001.84
2022-12-25T10:43:26.021Z,100992.56
2022-12-25T10:45:52.623Z,100985.75
2022-12-25T10:48:30.707Z,100979.19
2022-12-25T10:50:57.563Z,100981.97
2022-12-25T10:53:31.508Z,100973.31
2022-12-25T10:56:03.261Z,100953.75
2022-12-25T10:58:34.070Z,100947.09
2022-12-25T11:01:06.807Z,100940.41
2022-12-25T11:03:37.246Z,100940.41
2022-12-25T11:06:05.356Z,100935.84
2022-12-25T11:08:34.985Z,100937.81
2022-12-25T11:11:08.993Z,100922.44
2022-12-25T11:13:40.547Z,100909.56
2022-12-25T11:16:30.984Z,100919.59
2022-12-25T11:18:58.989Z,100905.22
2022-12-25T11:21:32.739Z,100914.84
2022-12-25T11:24:00.859Z,100903.16
2022-12-25T11:26:29.917Z,100893.63
2022-12-25T11:28:57.690Z,100894.44
2022-12-25T11:31:40.637Z,100899.06
2022-12-25T11:34:23.313Z,100899.88
2022-12-25T11:36:52.803Z,100900.34
2022-12-25T11:39:29.842Z,100899.69
2022-12-25T11:42:10.050Z,100890.59
2022-12-25T11:45:01.328Z,100892.91
2022-12-25T11:47:34.552Z,100887.69
2022-12-25T11:50:07.944Z,100879.22
2022-12-25T11:52:38.450Z,100874.63
2022-12-25T11:55:19.711Z,100879.34
2022-12-25T11:57:53.714Z,100880.59
2022-12-25T12:00:20.835Z,100878.19
2022-12-25T12:02:57.463Z,100877.06
2022-12-25T12:05:42.660Z,100868.31
2022-12-25T12:08:10.063Z,100866.78
2022-12-25T12:10:42.028Z,100864.38
2022-12-25T12:13:40.100Z,100856.91
2022-12-25T12:16:08.285Z,100853.47
2022-12-25T12:18:35.653Z,100844.66
2022-12-25T12:21:23.923Z,100836.91
2022-12-25T12:24:12.069Z,100833.94
2022-12-25T12:26:40.995Z,100827.22
2022-12-25T12:29:28.071Z,100842.69
2022-12-25T12:31:59.955Z,100825.50
2022-12-25T12:34:32.602Z,100823.06
2022-12-25T12:37:07.676Z,100812.94
2022-12-25T12:39:38.468Z,100818.28
2022-12-25T12:42:25.938Z,100809.03
2022-12-25T12:44:56.366Z,100823.50
2022-12-25T12:47:37.040Z,100827.22
2022-12-25T12:50:05.907Z,100818.75
2022-12-25T12:52:39.108Z,100817.09
2022-12-25T12:55:14.673Z,100823.34
2022-12-25T12:57:47.247Z,100818.44
2022-12-25T13:00:14.043Z,100822.31
2022-12-25T13:03:03.100Z,100824.16
2022-12-25T13:05:45.205Z,100820.44
2022-12-25T13:08:38.463Z,100803.25
2022-12-25T13:11:22.649Z,100793.28
2022-12-25T13:13:52.654Z,100787.94
2022-12-25T13:16:25.538Z,100776.41
2022-12-25T13:18:55.229Z,100757.88
2022-12-25T13:21:30.257Z,100768.84
2022-12-25T13:24:03.428Z,100757.59
2022-12-25T13:26:31.339Z,100742.03
2022-12-25T13:28:59.289Z,100736.25
2022-12-25T13:31:28.665Z,100738.25
2022-12-25T13:34:03.552Z,100745.00
2022-12-25T13:36:37.908Z,100756.44
2022-12-25T13:39:08.852Z,100736.34
2022-12-25T13:42:06.948Z,100743.94
2022-12-25T13:44:47.275Z,100750.94
2022-12-25T13:47:18.897Z,100745.09
2022-12-25T13:49:46.552Z,100745.53
2022-12-25T13:52:16.870Z,100745.19
2022-12-25T13:54:54.889Z,100745.19
2022-12-25T13:57:25.201Z,100742.56
2022-12-25T13:59:52.264Z,100732.13
2022-12-25T14:02:26.773Z,100727.63
2022-12-25T14:04:53.687Z,100731.94
2022-12-25T14:07:26.098Z,100720.06
2022-12-25T14:10:02.256Z,100719.69
2022-12-25T14:12:31.583Z,100728.34
2022-12-25T14:15:00.547Z,100728.25
2022-12-25T14:17:27.576Z,100734.75
2022-12-25T14:20:04.006Z,100750.03
2022-12-25T14:22:37.088Z,100750.69
2022-12-25T14:25:14.298Z,100740.56
2022-12-25T14:27:48.016Z,100744.28
2022-12-25T14:30:20.010Z,100747.44
2022-12-25T14:32:53.081Z,100750.50
2022-12-25T14:35:23.543Z,100744.00
2022-12-25T14:38:00.842Z,100752.13
2022-12-25T14:40:32.632Z,100758.16
2022-12-25T14:43:06.647Z,100754.91
2022-12-25T14:45:38.868Z,100743.00
2022-12-25T14:48:31.657Z,100743.00
2022-12-25T14:51:18.336Z,100745.78
2022-12-25T14:53:51.728Z,100750.69
2022-12-25T14:56:21.436Z,100744.44
2022-12-25T14:58:55.398Z,100747.69
2022-12-25T15:01:36.283Z,100747.50
2022-12-25T15:04:12.168Z,100746.72
2022-12-25T15:07:01.057Z,100736.91
2022-12-25T15:09:32.851Z,100730.22
2022-12-25T15:11:59.867Z,100739.31
2022-12-25T15:14:27.903Z,100733.47
2022-12-25T15:17:00.771Z,100731.94
2022-12-25T15:19:37.809Z,100736.91
2022-12-25T15:22:05.730Z,100729.84
2022-12-25T15:24:32.624Z,100729.63
2022-12-25T15:27:01.039Z,100731.03
2022-12-25T15:32:18.766Z,100723.94
2022-12-25T15:34:47.305Z,100735.19
2022-12-25T15:37:14.581Z,100720.41
2022-12-25T15:39:41.648Z,100729.94
2022-12-25T15:42:17.284Z,100727.16
2022-12-25T15:44:45.333Z,100726.00
2022-12-25T15:47:14.129Z,100722.75
2022-12-25T15:49:40.980Z,100725.19
2022-12-25T15:52:10.199Z,100721.59
2022-12-25T15:54:37.079Z,100713.13
2022-12-25T15:57:06.423Z,100716.97
2022-12-25T15:59:33.547Z,100725.19
2022-12-25T16:02:01.601Z,100728.97
2022-12-25T16:04:31.502Z,100722.31
2022-12-25T16:06:59.585Z,100724.72
2022-12-25T16:09:27.573Z,100720.84
2022-12-25T16:11:54.776Z,100717.44
2022-12-25T16:14:21.951Z,100714.19
2022-12-25T16:16:48.690Z,100703.94
2022-12-25T16:19:15.453Z,100702.88
2022-12-25T16:21:46.236Z,100702.50
2022-12-25T16:24:13.725Z,100699.69
2022-12-25T16:26:40.657Z,100706.91
2022-12-25T16:29:07.868Z,100710.06
2022-12-25T16:31:35.808Z,100710.22
2022-12-25T16:34:03.221Z,100715.72
2022-12-25T16:36:30.629Z,100707.53
2022-12-25T16:38:57.853Z,100704.13
2022-12-25T16:41:25.884Z,100696.81
2022-12-25T16:43:52.558Z,100681.59
2022-12-25T16:46:21.490Z,100693.88
2022-12-25T16:48:48.497Z,100696.09
2022-12-25T16:51:19.007Z,100691.69
2022-12-25T16:53:46.084Z,100701.69
2022-12-25T16:56:16.238Z,100704.47
2022-12-25T16:58:45.797Z,100707.25
2022-12-25T17:01:17.817Z,100709.16
2022-12-25T17:03:47.865Z,100698.06
2022-12-25T17:06:15.970Z,100701.31
2022-12-25T17:08:43.333Z,100702.31
2022-12-25T17:11:10.455Z,100696.47
2022-12-25T17:13:37.132Z,100697.63
2022-12-25T17:16:19.040Z,100695.38
2022-12-25T17:18:46.275Z,100696.63
2022-12-25T17:21:16.865Z,100699.69
2022-12-25T17:23:45.133Z,100695.66
2022-12-25T17:26:11.881Z,100698.06
2022-12-25T17:28:38.734Z,100690.00
2022-12-25T17:31:08.328Z,100688.00
2022-12-25T17:33:36.248Z,100696.47
2022-12-25T17:36:04.930Z,100694.84
2022-12-25T17:38:32.687Z,100707.53
2022-12-25T17:41:02.249Z,100698.06
2022-12-25T17:43:29.061Z,100687.19
2022-12-25T17:45:57.358Z,100700.06
2022-12-25T17:48:24.029Z,100696.47
2022-12-25T17:50:50.690Z,100696.38
2022-12-25T17:53:17.376Z,100700.69
2022-12-25T17:55:44.390Z,100687.63
2022-12-25T17:58:11.513Z,100680.53
2022-12-25T18:00:38.353Z,100680.97
2022-12-25T18:03:11.283Z,100683.56
2022-12-25T18:05:38.559Z,100682.41
2022-12-25T18:08:05.334Z,100689.44
2022-12-25T18:10:42.174Z,100690.78
2022-12-25T18:13:10.091Z,100690.25
2022-12-25T18:15:40.895Z,100695.66
2022-12-25T18:18:08.169Z,100704.38
2022-12-25T18:20:39.839Z,100698.81
2022-12-25T18:23:08.011Z,100709.25
2022-12-25T18:25:34.803Z,100713.50
2022-12-25T18:28:02.675Z,100721.75
2022-12-25T18:30:29.533Z,100721.13
2022-12-25T18:32:56.322Z,100718.53
2022-12-25T18:35:23.342Z,100713.81
2022-12-25T18:37:50.177Z,100714.81
2022-12-25T18:40:17.012Z,100718.53
2022-12-25T18:42:46.706Z,100700.31
2022-12-25T18:45:14.933Z,100705.19
2022-12-25T18:47:41.762Z,100697.88
2022-12-25T18:50:09.417Z,100706.38
2022-12-25T18:52:48.251Z,100709.59
2022-12-25T18:55:17.646Z,100713.03
2022-12-25T18:57:44.410Z,100706.38
2022-12-25T19:00:11.752Z,100713.22
2022-12-25T19:02:38.691Z,100691.88
2022-12-25T19:05:06.018Z,100685.47
2022-12-25T19:07:33.266Z,100673.78
2022-12-25T19:10:00.015Z,100685.47
2022-12-25T19:12:26.981Z,100685.81
2022-12-25T19:14:53.638Z,100683.94
2022-12-25T19:17:20.433Z,100689.72
2022-12-25T19:19:47.138Z,100672.06
2022-12-25T19:22:14.292Z,100679.88
2022-12-25T19:24:40.986Z,100687.72
2022-12-25T19:27:08.066Z,100694.56
2022-12-25T19:29:34.748Z,100699.00
2022-12-25T19:32:01.470Z,100709.25
2022-12-25T19:34:28.682Z,100709.59
2022-12-25T19:36:55.361Z,100715.09
2022-12-25T19:39:22.233Z,100701.84
2022-12-25T19:41:48.860Z,100707.91
2022-12-25T19:44:15.802Z,100696.81
2022-12-25T19:46:42.869Z,100695.22
2022-12-25T19:49:13.265Z,100703.13
2022-12-25T19:51:43.075Z,100706.53
2022-12-25T19:54:15.248Z,100705.66
2022-12-25T19:56:43.147Z,100717.50
2022-12-25T19:59:12.028Z,100710.06
2022-12-25T20:01:39.543Z,100717.34
2022-12-25T20:04:08.808Z,100712.28
2022-12-25T20:06:38.366Z,100709.16
2022-12-25T20:09:12.641Z,100717.00
2022-12-25T20:11:40.271Z,100715.09
2022-12-25T20:14:08.206Z,100735.28
2022-12-25T20:16:38.114Z,100731.84
2022-12-25T20:19:05.821Z,100726.09
2022-12-25T20:21:32.663Z,100723.84
2022-12-25T20:23:59.615Z,100737.97
2022-12-25T20:26:30.060Z,100734.91
2022-12-25T20:28:57.301Z,100740.75
2022-12-25T20:31:29.875Z,100737.16
2022-12-25T20:33:59.065Z,100735.53
2022-12-25T20:36:29.673Z,100730.94
2022-12-25T20:38:59.496Z,100732.94
2022-12-25T20:41:27.941Z,100725.56
2022-12-25T20:43:55.967Z,100727.63
2022-12-25T20:46:23.001Z,100720.75
2022-12-25T20:48:49.989Z,100724.38
2022-12-25T20:51:18.772Z,100728.78
2022-12-25T20:53:47.458Z,100723.75
2022-12-25T20:56:16.068Z,100719.88
2022-12-25T20:58:43.269Z,100721.66
2022-12-25T21:01:12.975Z,100732.75
2022-12-25T21:03:40.592Z,100730.31
2022-12-25T21:06:08.711Z,100729.88
2022-12-25T21:08:36.436Z,100733.91
2022-12-25T21:11:04.506Z,100741.13
2022-12-25T21:13:33.851Z,100758.41
2022-12-25T21:16:00.916Z,100748.97
2022-12-25T21:18:28.445Z,100747.97
2022-12-25T21:20:59.803Z,100760.03
2022-12-25T21:23:29.490Z,100760.41
2022-12-25T21:25:56.334Z,100771.28
2022-12-25T21:28:24.301Z,100764.78
2022-12-25T21:30:51.059Z,100776.34
2022-12-25T21:33:36.314Z,100793.88
2022-12-25T21:36:10.920Z,100785.88
2022-12-25T21:38:38.403Z,100791.91
2022-12-25T21:41:07.278Z,100798.13
2022-12-25T21:43:35.404Z,100797.31
2022-12-25T21:46:06.648Z,100794.72
2022-12-25T21:48:35.222Z,100810.72
2022-12-25T21:51:39.707Z,100811.84
2022-12-25T21:54:06.923Z,100802.44
2022-12-25T21:56:43.404Z,100793.28
2022-12-25T21:59:16.781Z,100799.84
2022-12-25T22:01:44.725Z,100798.13
2022-12-25T22:04:13.107Z,100791.72
2022-12-25T22:06:58.348Z,100794.94
2022-12-25T22:09:25.054Z,100792.16
2022-12-25T22:12:10.366Z,100794.94
2022-12-25T22:14:55.468Z,100780.72
2022-12-25T22:17:49.098Z,100793.59
2022-12-25T22:20:19.527Z,100785.34
2022-12-25T22:22:46.712Z,100794.34
2022-12-25T22:25:14.602Z,100791.38
2022-12-25T22:27:42.697Z,100795.41
2022-12-25T22:30:19.060Z,100797.03
2022-12-25T22:32:46.441Z,100787.41
2022-12-25T22:35:14.324Z,100790.56
2022-12-25T22:37:43.014Z,100798.03
2022-12-25T22:40:13.134Z,100795.41
2022-12-25T22:42:40.895Z,100791.81
2022-12-25T22:45:08.186Z,100788.75
2022-12-25T22:47:35.577Z,100791.38
2022-12-25T22:50:02.223Z,100786.59
2022-12-25T22:52:28.941Z,100794.53
2022-12-25T22:54:55.670Z,100789.91
2022-12-25T22:57:22.470Z,100793.34
2022-12-25T22:59:52.995Z,100787.56
2022-12-25T23:02:20.253Z,100807.63
2022-12-25T23:04:47.305Z,100790.22
2022-12-25T23:07:15.108Z,100796.38
2022-12-25T23:09:43.309Z,100801.78
2022-12-25T23:12:30.517Z,100785.38
2022-12-25T23:14:57.545Z,100780.84
2022-12-25T23:17:43.422Z,100781.22
2022-12-25T23:20:31.541Z,100781.03
2022-12-25T23:23:16.865Z,100784.75
2022-12-25T23:26:02.161Z,100791.41
2022-12-25T23:28:47.843Z,100796.47
2022-12-25T23:31:14.697Z,100794.84
2022-12-25T23:33:41.480Z,100792.28
2022-12-25T23:36:08.377Z,100792.81
2022-12-25T23:38:35.180Z,100793.88
2022-12-25T23:41:01.867Z,100803.13
2022-12-25T23:43:28.704Z,100822.06
2022-12-25T23:45:55.637Z,100818.28
2022-12-25T23:48:22.229Z,100828.66
2022-12-25T23:50:48.965Z,100828.13
2022-12-25T23:53:15.797Z,100834.16
2022-12-25T23:55:42.726Z,100831.00
2022-12-25T23:58:10.154Z,100824.00
